Map

Track Data

SID SEASON NUMBER BASIN SUBBASIN NAME ISO_TIME NATURE LAT LON WMO_WIND WMO_PRES WMO_AGENCY TRACK_TYPE DIST2LAND LANDFALL IFLAG USA_AGENCY USA_ATCF_ID USA_LAT USA_LON USA_RECORD USA_STATUS USA_WIND USA_PRES USA_SSHS USA_R34_NE USA_R34_SE USA_R34_SW USA_R34_NW USA_R50_NE USA_R50_SE USA_R50_SW USA_R50_NW USA_R64_NE USA_R64_SE USA_R64_SW USA_R64_NW USA_POCI USA_ROCI USA_RMW USA_EYE TOKYO_LAT TOKYO_LON TOKYO_GRADE TOKYO_WIND TOKYO_PRES TOKYO_R50_DIR TOKYO_R50_LONG TOKYO_R50_SHORT TOKYO_R30_DIR TOKYO_R30_LONG TOKYO_R30_SHORT TOKYO_LAND CMA_LAT CMA_LON CMA_CAT CMA_WIND CMA_PRES HKO_LAT HKO_LON HKO_CAT HKO_WIND HKO_PRES NEWDELHI_LAT NEWDELHI_LON NEWDELHI_GRADE NEWDELHI_WIND NEWDELHI_PRES NEWDELHI_CI NEWDELHI_DP NEWDELHI_POCI REUNION_LAT REUNION_LON REUNION_TYPE REUNION_WIND REUNION_PRES REUNION_TNUM REUNION_CI REUNION_RMW REUNION_R34_NE REUNION_R34_SE REUNION_R34_SW REUNION_R34_NW REUNION_R50_NE REUNION_R50_SE REUNION_R50_SW REUNION_R50_NW REUNION_R64_NE REUNION_R64_SE REUNION_R64_SW REUNION_R64_NW BOM_LAT BOM_LON BOM_TYPE BOM_WIND BOM_PRES BOM_TNUM BOM_CI BOM_RMW BOM_R34_NE BOM_R34_SE BOM_R34_SW BOM_R34_NW BOM_R50_NE BOM_R50_SE BOM_R50_SW BOM_R50_NW BOM_R64_NE BOM_R64_SE BOM_R64_SW BOM_R64_NW BOM_ROCI BOM_POCI BOM_EYE BOM_POS_METHOD BOM_PRES_METHOD NADI_LAT NADI_LON NADI_CAT NADI_WIND NADI_PRES WELLINGTON_LAT WELLINGTON_LON WELLINGTON_WIND WELLINGTON_PRES DS824_LAT DS824_LON DS824_STAGE DS824_WIND DS824_PRES TD9636_LAT TD9636_LON TD9636_STAGE TD9636_WIND TD9636_PRES TD9635_LAT TD9635_LON TD9635_WIND TD9635_PRES TD9635_ROCI NEUMANN_LAT NEUMANN_LON NEUMANN_CLASS NEUMANN_WIND NEUMANN_PRES MLC_LAT MLC_LON MLC_CLASS MLC_WIND MLC_PRES USA_GUST BOM_GUST BOM_GUST_PER REUNION_GUST REUNION_GUST_PER USA_SEAHGT USA_SEARAD_NE USA_SEARAD_SE USA_SEARAD_SW USA_SEARAD_NW STORM_SPEED STORM_DIR
1881247N13306 1881 36 NA NA NOT_NAMED 1881-09-03 12:00:00 TS 13.0000 -54.0000 main 782 779 _____________O -1 13.0000 -54.0000 TD 25 13 316
1881247N13306 1881 36 NA NA NOT_NAMED 1881-09-03 15:00:00 TS 13.4501 -54.4472 main 783 753 _____________P -1 13.4501 -54.4472 TD 25 13 316
1881247N13306 1881 36 NA NA NOT_NAMED 1881-09-03 18:00:00 TS 13.9000 -54.9000 main 753 732 _____________O -1 13.9000 -54.9000 TD 25 13 316
1881247N13306 1881 36 NA NA NOT_NAMED 1881-09-03 21:00:00 TS 14.3500 -55.3576 main 729 720 _____________P -1 14.3500 -55.3576 TD 27 13 316
1881247N13306 1881 36 NA NA NOT_NAMED 1881-09-04 00:00:00 TS 14.8000 -55.8000 main 727 724 _____________O -1 14.8000 -55.8000 TD 30 12 318
1881247N13306 1881 36 NA NA NOT_NAMED 1881-09-04 03:00:00 TS 15.2573 -56.2002 main 732 724 _____________P -1 15.2573 -56.2002 TD 30 12 319
1881247N13306 1881 36 NA NA NOT_NAMED 1881-09-04 06:00:00 TS 15.7000 -56.6000 main 735 735 _____________O -1 15.7000 -56.6000 TD 30 12 317
1881247N13306 1881 36 NA NA NOT_NAMED 1881-09-04 09:00:00 TS 16.1148 -57.0203 main 743 740 _____________P -1 16.1148 -57.0203 TD 32 12 313
1881247N13306 1881 36 NA NA NOT_NAMED 1881-09-04 12:00:00 TS 16.5000 -57.5000 main 751 746 _____________O -1 16.5000 -57.5000 TS 35 13 306
1881247N13306 1881 36 NA NA NOT_NAMED 1881-09-04 15:00:00 TS 16.8575 -58.0777 main 761 739 _____________P -1 16.8575 -58.0777 TS 35 13 301
1881247N13306 1881 36 NA NA NOT_NAMED 1881-09-04 18:00:00 TS 17.2000 -58.7000 main 739 671 _____________O -1 17.2000 -58.7000 TS 35 14 301
1881247N13306 1881 36 NA NA NOT_NAMED 1881-09-04 21:00:00 TS 17.5498 -59.3002 main 671 603 _____________P -1 17.5498 -59.3002 TS 35 13 301
1881247N13306 1881 36 NA NA NOT_NAMED 1881-09-05 00:00:00 TS 17.9000 -59.9000 main 603 538 _____________O -1 17.9000 -59.9000 TS 35 13 302
1881247N13306 1881 36 NA NA NOT_NAMED 1881-09-05 03:00:00 TS 18.2573 -60.5002 main 538 475 _____________P -1 18.2573 -60.5002 TS 35 13 302
1881247N13306 1881 36 NA NA NOT_NAMED 1881-09-05 06:00:00 TS 18.6000 -61.1000 main 475 414 _____________O -1 18.6000 -61.1000 TS 35 13 299
1881247N13306 1881 36 NA NA NOT_NAMED 1881-09-05 09:00:00 TS 18.9001 -61.7302 main 414 358 _____________P -1 18.9001 -61.7302 TS 35 13 298
1881247N13306 1881 36 NA NA NOT_NAMED 1881-09-05 12:00:00 TS 19.2000 -62.3000 main 358 328 _____________O -1 19.2000 -62.3000 TS 35 11 304
1881247N13306 1881 36 NA NA NOT_NAMED 1881-09-05 15:00:00 TS 19.5422 -62.7303 main 328 311 _____________P -1 19.5422 -62.7303 TS 37 10 313
1881247N13306 1881 36 NA NA NOT_NAMED 1881-09-05 18:00:00 TS 19.9000 -63.1000 main 311 298 _____________O -1 19.9000 -63.1000 TS 40 10 314
1881247N13306 1881 36 NA NA NOT_NAMED 1881-09-05 21:00:00 TS 20.2424 -63.5002 main 298 298 _____________P -1 20.2424 -63.5002 TS 42 10 313
1881247N13306 1881 36 NA NA NOT_NAMED 1881-09-06 00:00:00 TS 20.6000 -63.9000 main 303 303 _____________O -1 20.6000 -63.9000 TS 45 11 316
1881247N13306 1881 36 NA NA NOT_NAMED 1881-09-06 03:00:00 TS 21.0074 -64.3000 main 321 321 _____________P -1 21.0074 -64.3000 TS 50 11 317
1881247N13306 1881 36 NA NA NOT_NAMED 1881-09-06 06:00:00 TS 21.4000 -64.7000 main 348 348 _____________O -1 21.4000 -64.7000 TS 55 10 313
1881247N13306 1881 36 NA NA NOT_NAMED 1881-09-06 09:00:00 TS 21.7074 -65.1003 main 372 372 _____________P -1 21.7074 -65.1003 TS 57 10 309
1881247N13306 1881 36 NA NA NOT_NAMED 1881-09-06 12:00:00 TS 22.0000 -65.5000 main 402 402 _____________O -1 22.0000 -65.5000 TS 60 10 311
1881247N13306 1881 36 NA NA NOT_NAMED 1881-09-06 15:00:00 TS 22.3500 -65.9075 main 436 436 _____________P -1 22.3500 -65.9075 TS 62 10 313
1881247N13306 1881 36 NA NA NOT_NAMED 1881-09-06 18:00:00 TS 22.7000 -66.3000 main 480 480 _____________O -1 22.7000 -66.3000 HU 65 10 314
1881247N13306 1881 36 NA NA NOT_NAMED 1881-09-06 21:00:00 TS 23.0074 -66.6578 main 493 487 _____________P -1 23.0074 -66.6578 HU 65 15 300
1881247N13306 1881 36 NA NA NOT_NAMED 1881-09-07 00:00:00 TS 23.4333 -67.6667 70 hurdat_atl main 486 486 O____________O hurdat_atl AL061881 23.7000 -69.0000 HU 70 1 23.3000 -67.0000 HU 65 19 301
1881247N13306 1881 36 NA NA NOT_NAMED 1881-09-07 03:00:00 TS 23.9802 -68.4258 main 518 515 P____________P AL061881 24.3604 -69.5014 HU 70 1 23.5999 -67.3502 HU 67 17 311
1881247N13306 1881 36 NA NA NOT_NAMED 1881-09-07 06:00:00 TS 24.5600 -69.0800 70 hurdat_atl main 551 543 O____________O hurdat_atl AL061881 25.0000 -70.0000 HU 70 1 23.9000 -67.7000 HU 70 16 316
1881247N13306 1881 36 NA NA NOT_NAMED 1881-09-07 09:00:00 TS 25.1331 -69.6690 main 551 551 P____________P AL061881 25.6072 -70.4932 HU 70 1 24.1847 -68.0206 HU 70 14 318
1881247N13306 1881 36 NA NA NOT_NAMED 1881-09-07 12:00:00 TS 25.6333 -70.1333 70 hurdat_atl main 573 573 O____________O hurdat_atl AL061881 26.2000 -71.0000 HU 70 1 24.5000 -68.4000 HU 70 14 319
1881247N13306 1881 36 NA NA NOT_NAMED 1881-09-07 15:00:00 TS 26.1564 -70.6539 main 605 605 P____________P AL061881 26.7996 -71.5208 HU 70 1 24.8701 -68.9202 HU 70 15 317
1881247N13306 1881 36 NA NA NOT_NAMED 1881-09-07 18:00:00 TS 26.7000 -71.2333 70 hurdat_atl main 641 638 O____________O hurdat_atl AL061881 27.4000 -72.1000 HU 70 1 25.3000 -69.5000 HU 70 15 315
1881247N13306 1881 36 NA NA NOT_NAMED 1881-09-07 21:00:00 TS 27.2440 -71.8642 main 651 624 P____________P AL061881 27.9774 -72.7710 HU 75 1 25.7773 -70.0504 HU 72 16 314
1881247N13306 1881 36 NA NA NOT_NAMED 1881-09-08 00:00:00 TS 27.8333 -72.5333 80 hurdat_atl main 624 603 O____________O hurdat_atl AL061881 28.6000 -73.5000 HU 80 1 26.3000 -70.6000 HU 75 18 316
1881247N13306 1881 36 NA NA NOT_NAMED 1881-09-08 03:00:00 TS 28.5294 -73.2458 main 608 600 P____________P AL061881 29.3729 -74.2936 HU 80 1 26.8423 -71.1504 HU 75 18 319
1881247N13306 1881 36 NA NA NOT_NAMED 1881-09-08 06:00:00 TS 29.2000 -73.9000 80 hurdat_atl main 611 578 O____________O hurdat_atl AL061881 30.1000 -75.0000 HU 80 1 27.4000 -71.7000 HU 75 16 320
1881247N13306 1881 36 NA NA NOT_NAMED 1881-09-08 09:00:00 TS 29.7279 -74.4110 main 578 519 P____________P AL061881 30.6169 -75.4912 HU 80 1 27.9498 -72.2506 HU 77 12 321
1881247N13306 1881 36 NA NA NOT_NAMED 1881-09-08 12:00:00 TS 30.1667 -74.8000 80 hurdat_atl main 510 457 O____________O hurdat_atl AL061881 31.0000 -75.8000 HU 80 1 28.5000 -72.8000 HU 80 10 325
1881247N13306 1881 36 NA NA NOT_NAMED 1881-09-08 15:00:00 TS 30.5747 -75.1040 main 457 413 P____________P AL061881 31.3372 -75.9807 HU 80 1 29.0498 -73.3506 HU 80 9 328
1881247N13306 1881 36 NA NA NOT_NAMED 1881-09-08 18:00:00 TS 30.9333 -75.3667 80 hurdat_atl main 413 370 O____________O hurdat_atl AL061881 31.6000 -76.1000 HU 80 1 29.6000 -73.9000 HU 80 8 324
1881247N13306 1881 36 NA NA NOT_NAMED 1881-09-08 21:00:00 TS 31.2399 -75.6713 main 370 326 P____________P AL061881 31.7850 -76.2854 HU 85 2 30.1497 -74.4432 HU 82 8 320
1881247N13306 1881 36 NA NA NOT_NAMED 1881-09-09 00:00:00 TS 31.5667 -76.0000 90 hurdat_atl main 317 264 O____________O hurdat_atl AL061881 32.0000 -76.5000 HU 90 2 30.7000 -75.0000 HU 85 10 323
1881247N13306 1881 36 NA NA NOT_NAMED 1881-09-09 03:00:00 TS 32.0091 -76.3617 main 259 206 P____________P AL061881 32.3925 -76.7422 HU 90 2 31.2424 -75.6006 HU 85 11 325
1881247N13306 1881 36 NA NA NOT_NAMED 1881-09-09 06:00:00 TS 32.4667 -76.7333 90 hurdat_atl main 197 153 O____________O hurdat_atl AL061881 32.8000 -77.0000 HU 90 2 31.8000 -76.2000 HU 85 10 324
1881247N13306 1881 36 NA NA NOT_NAMED 1881-09-09 09:00:00 TS 32.8204 -77.0599 main 148 95 P____________P AL061881 33.0345 -77.2144 HU 90 2 32.3921 -76.7509 HU 85 9 321
1881247N13306 1881 36 NA NA NOT_NAMED 1881-09-09 12:00:00 TS 33.2000 -77.4333 90 hurdat_atl main 95 22 O____________O hurdat_atl AL061881 33.3000 -77.5000 HU 90 2 33.0000 -77.3000 HU 85 12 318
1881247N13306 1881 36 NA NA NOT_NAMED 1881-09-09 15:00:00 TS 33.6931 -78.0005 main 22 11 P____________P AL061881 33.7430 -78.0027 HU 90 2 33.5932 -77.9960 HU 82 13 319
1881247N13306 1881 36 NA NA NOT_NAMED 1881-09-09 16:00:00 TS 33.8642 -78.1346 90 hurdat_atl main 0 0 O____________P hurdat_atl AL061881 33.9000 -78.1000 L HU 90 2 33.7927 -78.2037 HU 81 11 339
1881247N13306 1881 36 NA NA NOT_NAMED 1881-09-09 18:00:00 TS 34.2000 -78.2333 80 975 hurdat_atl main 0 0 O____________O hurdat_atl AL061881 34.2000 -78.1000 HU 80 975 1 34.2000 -78.5000 HU 80 975 11 1
1881247N13306 1881 36 NA NA NOT_NAMED 1881-09-09 21:00:00 TS 34.7470 -78.1120 main 0 0 P____________P AL061881 34.6885 -77.8703 HU 70 1 34.8638 -78.5954 HU 70 12 19
1881247N13306 1881 36 NA NA NOT_NAMED 1881-09-10 00:00:00 TS 35.3000 -77.7667 60 hurdat_atl main 0 0 O____________O hurdat_atl AL061881 35.2000 -77.5000 TS 60 0 35.5000 -78.3000 TS 60 12 29
1881247N13306 1881 36 NA NA NOT_NAMED 1881-09-10 03:00:00 TS 35.8175 -77.3781 main 0 0 P____________P AL061881 35.7147 -77.2219 TS 55 0 36.0232 -77.6905 TS 55 12 35
1881247N13306 1881 36 NA NA NOT_NAMED 1881-09-10 06:00:00 TS 36.3000 -76.9000 50 hurdat_atl main 0 0 O____________O hurdat_atl AL061881 36.2000 -76.9000 TS 50 0 36.5000 -76.9000 TS 50 12 41
1881247N13306 1881 36 NA NA NOT_NAMED 1881-09-10 09:00:00 TS 36.7331 -76.3957 main 0 0 P____________P AL061881 36.5996 -76.5087 TS 50 0 37.0001 -76.1697 TS 50 12 45
1881247N13306 1881 36 NA NA NOT_NAMED 1881-09-10 12:00:00 TS 37.1364 -75.8636 50 hurdat_atl main 0 0 O____________O hurdat_atl AL061881 37.0000 -76.0000 TS 50 0 37.5000 -75.5000 TS 50 12 47
1881247N13306 1881 36 NA NA NOT_NAMED 1881-09-10 15:00:00 TS 37.5883 -75.2564 main 28 28 P____________P AL061881 37.4853 -75.3302 TS 50 0 38.0000 -74.9608 TS 40 14 48
1881247N13306 1881 36 NA NA NOT_NAMED 1881-09-10 18:00:00 TS 38.0556 -74.5889 50 hurdat_atl main 48 48 O____________O hurdat_atl AL061881 38.0000 -74.6000 TS 50 0 38.5000 -74.5000 TD 30 14 48
1881247N13306 1881 36 NA NA NOT_NAMED 1881-09-10 21:00:00 TS 38.5068 -73.9564 main 88 88 P_____________ AL061881 38.5068 -73.9564 TS 50 0 TD 14 47
1881247N13306 1881 36 NA NA NOT_NAMED 1881-09-11 00:00:00 TS 39.0000 -73.3000 50 hurdat_atl main 102 102 O_____________ hurdat_atl AL061881 39.0000 -73.3000 TS 50 0 15 48
1881247N13306 1881 36 NA NA NOT_NAMED 1881-09-11 03:00:00 TS 39.4801 -72.5501 main 136 116 P_____________ AL061881 39.4801 -72.5501 TS 50 0 15 52
1881247N13306 1881 36 NA NA NOT_NAMED 1881-09-11 06:00:00 TS 39.9000 -71.8000 50 hurdat_atl main 120 117 O_____________ hurdat_atl AL061881 39.9000 -71.8000 TS 50 0 13 57
1881247N13306 1881 36 NA NA NOT_NAMED 1881-09-11 09:00:00 TS 40.1916 -71.1474 main 137 111 P_____________ AL061881 40.1916 -71.1474 TS 50 0 12 59
1881247N13306 1881 36 NA NA NOT_NAMED 1881-09-11 12:00:00 TS 40.5000 -70.5000 50 hurdat_atl main 112 88 O_____________ hurdat_atl AL061881 40.5000 -70.5000 TS 50 0 13 54
1881247N13306 1881 36 NA NA NOT_NAMED 1881-09-11 15:00:00 TS 40.9539 -69.7789 main 79 66 P_____________ AL061881 40.9539 -69.7789 TS 50 0 15 49
1881247N13306 1881 36 NA NA NOT_NAMED 1881-09-11 18:00:00 TS 41.5000 -69.0000 50 hurdat_atl main 85 O_____________ hurdat_atl AL061881 41.5000 -69.0000 TS 50 0 16 47

About IBTrACS Database

This database is a web-friendly format of International Best Track Archive for Climate Stewardship (IBTrACS), a global best track data archive curated by NOAA dating back to 1842.

Updated: 2021-12-03